createdAt,value
2023-04-13T00:02:28.016Z,0.77
2023-04-13T00:05:17.218Z,2.22
2023-04-13T00:08:06.057Z,1.27
2023-04-13T00:10:54.629Z,2.05
2023-04-13T00:13:43.247Z,4.10
2023-04-13T00:16:31.933Z,3.13
2023-04-13T00:19:19.640Z,0.40
2023-04-13T00:22:09.831Z,3.47
2023-04-13T00:25:00.092Z,2.13
2023-04-13T00:27:50.768Z,7.13
2023-04-13T00:30:38.617Z,0.65
2023-04-13T00:36:31.179Z,1.42
2023-04-13T00:39:23.336Z,0.73
2023-04-13T00:42:11.376Z,1.77
2023-04-13T00:44:59.046Z,1.85
2023-04-13T00:47:49.004Z,1.30
2023-04-13T00:50:37.348Z,1.85
2023-04-13T00:53:25.046Z,0.70
2023-04-13T00:56:13.400Z,1.70
2023-04-13T00:59:01.183Z,1.95
2023-04-13T01:01:56.661Z,1.30
2023-04-13T01:04:46.059Z,0.57
2023-04-13T01:07:57.882Z,0.30
2023-04-13T01:11:06.237Z,3.73
2023-04-13T01:14:31.841Z,2.15
2023-04-13T01:17:23.832Z,0.20
2023-04-13T01:20:16.545Z,3.70
2023-04-13T01:23:09.861Z,3.13
2023-04-13T01:26:01.787Z,1.23
2023-04-13T01:28:51.552Z,6.00
2023-04-13T01:31:40.842Z,3.47
2023-04-13T01:34:30.327Z,1.17
2023-04-13T01:37:18.375Z,1.55
2023-04-13T01:40:12.988Z,1.05
2023-04-13T01:43:05.117Z,0.70
2023-04-13T01:46:14.178Z,2.10
2023-04-13T01:49:31.077Z,2.83
2023-04-13T01:52:28.082Z,0.98
2023-04-13T01:55:16.461Z,3.63
2023-04-13T01:58:13.843Z,8.60
2023-04-13T02:01:08.045Z,7.35
2023-04-13T02:03:55.836Z,2.22
2023-04-13T02:09:36.221Z,1.40
2023-04-13T02:12:24.105Z,2.70
2023-04-13T02:15:11.928Z,2.20
2023-04-13T02:18:00.170Z,3.58
2023-04-13T02:20:47.867Z,1.95
2023-04-13T02:23:41.513Z,1.67
2023-04-13T02:26:29.535Z,4.03
2023-04-13T02:29:17.854Z,2.38
2023-04-13T02:32:07.409Z,2.30
2023-04-13T02:34:55.614Z,4.63
2023-04-13T02:37:43.452Z,3.55
2023-04-13T02:40:34.088Z,2.85
2023-04-13T02:43:22.568Z,6.43
2023-04-13T02:46:10.792Z,7.00
2023-04-13T02:49:00.368Z,5.55
2023-04-13T02:51:52.480Z,9.25
2023-04-13T02:54:47.285Z,10.82
2023-04-13T02:57:35.844Z,9.30
2023-04-13T03:00:26.044Z,13.20
2023-04-13T03:03:20.896Z,14.13
2023-04-13T03:06:10.235Z,11.30
2023-04-13T03:09:07.858Z,9.70
2023-04-13T03:12:03.976Z,7.85
2023-04-13T03:14:52.326Z,8.65
2023-04-13T03:17:44.219Z,14.35
2023-04-13T03:20:37.111Z,15.57
2023-04-13T03:23:24.724Z,17.13
2023-04-13T03:26:13.184Z,23.55
2023-04-13T03:29:01.578Z,14.60
2023-04-13T03:31:52.727Z,21.50
2023-04-13T03:34:44.551Z,15.15
2023-04-13T03:37:40.604Z,17.95
2023-04-13T03:40:36.634Z,17.70
2023-04-13T03:43:24.398Z,21.23
2023-04-13T03:46:21.037Z,22.65
2023-04-13T03:49:11.131Z,17.63
2023-04-13T03:51:59.507Z,18.20
2023-04-13T03:54:51.577Z,18.00
2023-04-13T03:57:39.421Z,14.73
2023-04-13T04:00:30.843Z,11.60
2023-04-13T04:03:30.645Z,13.07
2023-04-13T04:06:24.933Z,21.27
2023-04-13T04:09:20.941Z,11.23
2023-04-13T04:12:09.233Z,12.13
2023-04-13T04:15:01.473Z,9.75
2023-04-13T04:17:52.609Z,11.75
2023-04-13T04:20:40.499Z,19.83
2023-04-13T04:23:30.648Z,14.35
2023-04-13T04:26:26.000Z,11.10
2023-04-13T04:29:37.169Z,12.55
2023-04-13T04:32:42.802Z,11.75
2023-04-13T04:35:35.528Z,17.63
2023-04-13T04:41:21.169Z,10.38
2023-04-13T04:44:17.091Z,23.15
2023-04-13T04:47:06.209Z,21.45
2023-04-13T04:50:02.192Z,17.65
2023-04-13T04:52:54.695Z,15.80
2023-04-13T04:55:46.748Z,25.63
2023-04-13T04:58:46.756Z,15.25
2023-04-13T05:01:35.256Z,21.42
2023-04-13T05:04:29.222Z,15.23
2023-04-13T05:07:18.033Z,24.05
2023-04-13T05:10:29.824Z,21.70
2023-04-13T05:13:18.664Z,23.00
2023-04-13T05:16:16.824Z,19.50
2023-04-13T05:19:08.137Z,13.18
2023-04-13T05:22:07.163Z,8.23
2023-04-13T05:25:01.288Z,17.90
2023-04-13T05:27:50.397Z,6.32
2023-04-13T05:30:38.199Z,19.15
2023-04-13T05:33:26.778Z,17.27
2023-04-13T05:36:17.256Z,8.50
2023-04-13T05:39:06.212Z,18.65
2023-04-13T05:41:56.435Z,10.35
2023-04-13T05:44:46.816Z,8.20
2023-04-13T05:47:38.937Z,6.28
2023-04-13T05:50:31.740Z,1.67
2023-04-13T05:53:19.429Z,4.72
2023-04-13T05:56:11.335Z,5.22
2023-04-13T05:59:04.553Z,10.75
2023-04-13T06:01:53.794Z,1.17
2023-04-13T06:04:43.680Z,6.20
2023-04-13T06:07:32.100Z,4.32
2023-04-13T06:10:19.791Z,6.93
2023-04-13T06:13:08.475Z,2.97
2023-04-13T06:15:56.183Z,4.25
2023-04-13T06:18:43.852Z,1.95
2023-04-13T06:21:33.765Z,2.50
2023-04-13T06:24:21.457Z,7.32
2023-04-13T06:27:09.205Z,1.52
2023-04-13T06:30:00.352Z,4.72
2023-04-13T06:32:52.141Z,7.25
2023-04-13T06:35:42.746Z,3.75
2023-04-13T06:38:32.145Z,6.85
2023-04-13T06:41:25.518Z,10.98
2023-04-13T06:44:13.196Z,7.53
2023-04-13T06:47:17.980Z,11.90
2023-04-13T06:50:08.053Z,7.35
2023-04-13T06:53:00.109Z,4.70
2023-04-13T06:55:51.979Z,9.35
2023-04-13T06:58:40.134Z,3.28
2023-04-13T07:01:28.755Z,2.90
2023-04-13T07:04:18.100Z,3.13
2023-04-13T07:07:06.666Z,2.17
2023-04-13T07:09:54.724Z,3.72
2023-04-13T07:12:42.797Z,2.33
2023-04-13T07:15:31.826Z,4.95
2023-04-13T07:18:19.533Z,8.52
2023-04-13T07:21:09.306Z,1.98
2023-04-13T07:24:15.511Z,1.38
2023-04-13T07:27:04.728Z,7.20
2023-04-13T07:29:52.725Z,1.55
2023-04-13T07:32:43.649Z,1.80
2023-04-13T07:35:31.845Z,1.83
2023-04-13T07:38:24.016Z,1.88
2023-04-13T07:41:33.135Z,2.55
2023-04-13T07:44:24.873Z,2.38
2023-04-13T07:47:14.357Z,2.47
2023-04-13T07:50:06.475Z,1.02
2023-04-13T07:52:55.385Z,4.20
2023-04-13T07:55:44.672Z,0.10
2023-04-13T07:58:33.489Z,1.85
2023-04-13T08:01:22.335Z,4.22
2023-04-13T08:04:10.722Z,0.60
2023-04-13T08:07:07.503Z,3.00
2023-04-13T08:09:55.722Z,1.92
2023-04-13T08:12:44.011Z,4.13
2023-04-13T08:16:15.679Z,1.67
2023-04-13T08:19:06.900Z,0.70
2023-04-13T08:21:59.014Z,0.70
2023-04-13T08:24:46.640Z,2.15
2023-04-13T08:27:34.528Z,1.60
2023-04-13T08:30:23.080Z,3.90
2023-04-13T08:33:18.829Z,5.25
2023-04-13T08:36:07.892Z,1.42
2023-04-13T08:38:56.314Z,1.40
2023-04-13T08:41:48.764Z,0.82
2023-04-13T08:44:43.203Z,4.22
2023-04-13T08:47:31.839Z,4.22
2023-04-13T08:50:21.833Z,0.57
2023-04-13T08:53:13.087Z,1.42
2023-04-13T08:56:04.179Z,3.83
2023-04-13T08:58:59.236Z,1.60
2023-04-13T09:01:49.481Z,1.85
2023-04-13T09:04:44.388Z,2.33
2023-04-13T09:07:36.984Z,0.60
2023-04-13T09:10:31.353Z,2.08
2023-04-13T09:13:19.222Z,4.90
2023-04-13T09:16:07.609Z,1.10
2023-04-13T09:19:01.398Z,1.90
2023-04-13T09:21:51.088Z,3.70
2023-04-13T09:24:42.656Z,1.95
2023-04-13T09:27:30.430Z,4.13
2023-04-13T09:30:21.745Z,2.53
2023-04-13T09:33:11.372Z,4.45
2023-04-13T09:36:09.578Z,1.92
2023-04-13T09:38:58.334Z,2.42
2023-04-13T09:41:49.771Z,2.78
2023-04-13T09:44:37.616Z,2.08
2023-04-13T09:47:26.415Z,0.52
2023-04-13T09:50:28.246Z,0.95
2023-04-13T09:53:15.945Z,1.80
2023-04-13T09:56:03.907Z,1.33
2023-04-13T09:58:51.883Z,1.13
2023-04-13T10:01:41.312Z,7.35
2023-04-13T10:04:31.344Z,2.75
2023-04-13T10:07:19.918Z,5.35
2023-04-13T10:10:08.401Z,3.05
2023-04-13T10:12:59.337Z,1.75
2023-04-13T10:16:06.341Z,0.40
2023-04-13T10:19:08.102Z,0.88
2023-04-13T10:21:56.710Z,1.55
2023-04-13T10:24:44.958Z,2.80
2023-04-13T10:27:32.947Z,1.48
2023-04-13T10:30:22.219Z,2.70
2023-04-13T10:33:16.023Z,2.13
2023-04-13T10:36:03.803Z,7.43
2023-04-13T10:38:51.527Z,2.95
2023-04-13T10:41:39.271Z,0.45
2023-04-13T10:44:27.225Z,1.25
2023-04-13T10:47:19.223Z,0.32
2023-04-13T10:50:20.234Z,0.75
2023-04-13T10:53:09.359Z,0.90
2023-04-13T10:56:01.955Z,5.93
2023-04-13T10:58:54.313Z,1.45
2023-04-13T11:01:48.367Z,0.90
2023-04-13T11:04:50.139Z,0.88
2023-04-13T11:10:29.942Z,0.73
2023-04-13T11:13:22.650Z,0.60
2023-04-13T11:16:11.107Z,6.35
2023-04-13T11:19:03.758Z,0.60
2023-04-13T11:21:56.678Z,0.75
2023-04-13T11:24:46.132Z,2.33
2023-04-13T11:27:38.150Z,4.72
2023-04-13T11:30:27.060Z,1.10
2023-04-13T11:37:20.417Z,0.30
2023-04-13T11:40:20.584Z,2.00
2023-04-13T11:43:08.703Z,1.48
2023-04-13T11:45:56.528Z,0.32
2023-04-13T11:48:44.639Z,0.20
2023-04-13T11:51:33.391Z,1.08
2023-04-13T11:54:29.178Z,1.40
2023-04-13T11:57:18.365Z,0.75
2023-04-13T12:00:14.075Z,2.88
2023-04-13T12:03:34.671Z,1.95
2023-04-13T12:06:22.277Z,1.13
2023-04-13T12:09:15.817Z,3.05
2023-04-13T12:15:20.974Z,3.40
2023-04-13T12:18:15.736Z,0.25
2023-04-13T12:21:06.735Z,1.65
2023-04-13T12:24:02.027Z,1.58
2023-04-13T12:29:41.673Z,0.93
2023-04-13T12:32:30.844Z,0.73
2023-04-13T12:35:21.786Z,0.10
2023-04-13T12:41:33.912Z,0.10
2023-04-13T12:44:21.586Z,2.25
2023-04-13T12:47:09.234Z,1.83
2023-04-13T12:49:56.930Z,1.80
2023-04-13T12:52:44.744Z,0.10
2023-04-13T12:55:32.330Z,2.13
2023-04-13T12:58:20.065Z,0.90
2023-04-13T13:01:08.628Z,1.33
2023-04-13T13:03:56.359Z,6.78
2023-04-13T13:06:43.991Z,1.55
2023-04-13T13:09:32.283Z,0.80
2023-04-13T13:12:19.986Z,2.05
2023-04-13T13:15:10.760Z,1.38
2023-04-13T13:17:58.446Z,0.45
2023-04-13T13:20:46.306Z,1.95
2023-04-13T13:23:33.820Z,1.33
2023-04-13T13:26:24.330Z,40.45
2023-04-13T13:29:14.013Z,7.38
2023-04-13T13:32:01.759Z,3.75
2023-04-13T13:34:49.506Z,14.32
2023-04-13T13:37:37.517Z,3.25
2023-04-13T13:40:28.223Z,11.98
2023-04-13T13:43:18.263Z,2.70
2023-04-13T13:46:06.995Z,3.72
2023-04-13T13:52:03.997Z,0.65
2023-04-13T13:54:58.702Z,2.70
2023-04-13T13:57:49.440Z,2.65
2023-04-13T14:00:37.121Z,1.65
2023-04-13T14:03:25.004Z,0.80
2023-04-13T14:06:15.533Z,0.80
2023-04-13T14:09:03.968Z,4.57
2023-04-13T14:11:51.728Z,5.70
2023-04-13T14:14:39.464Z,4.60
2023-04-13T14:17:27.320Z,6.47
2023-04-13T14:20:15.829Z,0.57
2023-04-13T14:23:03.608Z,0.50
2023-04-13T14:25:51.221Z,12.27
2023-04-13T14:28:39.399Z,0.85
2023-04-13T14:31:27.071Z,1.15
2023-04-13T14:34:14.771Z,0.57
2023-04-13T14:37:02.348Z,1.42
2023-04-13T14:39:53.164Z,3.72
2023-04-13T14:42:41.393Z,0.43
2023-04-13T14:45:29.147Z,2.25
2023-04-13T14:48:17.812Z,3.65
2023-04-13T14:51:05.574Z,3.42
2023-04-13T14:53:56.534Z,0.95
2023-04-13T14:56:44.337Z,2.20
2023-04-13T14:59:32.236Z,2.60
2023-04-13T15:02:20.443Z,3.30
2023-04-13T15:05:09.052Z,3.72
2023-04-13T15:07:56.932Z,6.75
2023-04-13T15:10:48.334Z,2.78
2023-04-13T15:13:48.090Z,4.32
2023-04-13T15:16:36.810Z,4.85
2023-04-13T15:19:24.499Z,5.53
2023-04-13T15:22:12.065Z,1.27
2023-04-13T15:25:15.955Z,6.18
2023-04-13T15:28:07.506Z,5.57
2023-04-13T15:30:55.354Z,3.75
2023-04-13T15:33:53.768Z,7.10
2023-04-13T15:36:41.866Z,0.52
2023-04-13T15:39:31.788Z,3.50
2023-04-13T15:42:21.416Z,1.50
2023-04-13T15:45:09.733Z,0.50
2023-04-13T15:47:57.562Z,5.05
2023-04-13T15:50:45.135Z,1.83
2023-04-13T15:53:33.728Z,1.65
2023-04-13T15:56:21.715Z,1.45
2023-04-13T15:59:09.397Z,0.85
2023-04-13T16:01:57.249Z,6.70
2023-04-13T16:04:47.682Z,1.15
2023-04-13T16:07:35.843Z,1.95
2023-04-13T16:10:23.480Z,0.50
2023-04-13T16:13:19.136Z,3.60
2023-04-13T16:16:06.975Z,1.70
2023-04-13T16:18:55.117Z,3.53
2023-04-13T16:21:45.675Z,3.40
2023-04-13T16:24:33.902Z,5.70
2023-04-13T16:27:22.586Z,3.75
2023-04-13T16:30:13.078Z,3.53
2023-04-13T16:33:00.773Z,5.78
2023-04-13T16:35:48.480Z,6.93
2023-04-13T16:38:36.916Z,6.30
2023-04-13T16:41:24.490Z,11.40
2023-04-13T16:44:12.202Z,2.30
2023-04-13T16:46:59.858Z,6.13
2023-04-13T16:49:47.523Z,4.57
2023-04-13T16:52:35.865Z,1.67
2023-04-13T16:55:23.701Z,4.35
2023-04-13T16:58:12.468Z,3.95
2023-04-13T17:01:00.155Z,2.35
2023-04-13T17:03:47.840Z,9.30
2023-04-13T17:06:37.814Z,4.97
2023-04-13T17:09:25.492Z,7.90
2023-04-13T17:12:13.123Z,5.55
2023-04-13T17:15:04.186Z,12.43
2023-04-13T17:17:51.872Z,10.67
2023-04-13T17:20:40.121Z,8.57
2023-04-13T17:23:27.826Z,4.63
2023-04-13T17:26:18.371Z,5.72
2023-04-13T17:29:06.769Z,6.95
2023-04-13T17:31:55.081Z,8.48
2023-04-13T17:34:44.875Z,5.63
2023-04-13T17:37:32.760Z,4.25
2023-04-13T17:40:21.003Z,5.60
2023-04-13T17:43:09.386Z,16.85
2023-04-13T17:45:57.113Z,11.80
2023-04-13T17:48:45.036Z,14.55
2023-04-13T17:51:33.759Z,4.63
2023-04-13T17:54:21.354Z,4.75
2023-04-13T17:57:13.639Z,5.28
2023-04-13T18:00:02.302Z,7.45
2023-04-13T18:02:55.431Z,4.90
2023-04-13T18:05:44.824Z,8.60
2023-04-13T18:08:32.600Z,7.85
2023-04-13T18:11:20.293Z,7.00
2023-04-13T18:14:09.341Z,9.20
2023-04-13T18:16:57.018Z,13.02
2023-04-13T18:19:44.690Z,8.38
2023-04-13T18:22:36.215Z,6.90
2023-04-13T18:25:24.082Z,7.13
2023-04-13T18:28:11.844Z,6.68
2023-04-13T18:31:03.017Z,6.28
2023-04-13T18:33:50.646Z,5.78
2023-04-13T18:36:38.236Z,3.97
2023-04-13T18:39:26.201Z,5.97
2023-04-13T18:42:13.751Z,3.53
2023-04-13T18:45:01.382Z,3.70
2023-04-13T18:47:49.090Z,12.63
2023-04-13T18:50:37.370Z,7.93
2023-04-13T18:53:25.056Z,3.20
2023-04-13T18:56:12.672Z,3.97
2023-04-13T18:59:00.490Z,7.05
2023-04-13T19:01:48.072Z,8.85
2023-04-13T19:04:35.971Z,10.60
2023-04-13T19:07:23.700Z,7.05
2023-04-13T19:10:11.677Z,5.03
2023-04-13T19:12:59.673Z,32.80
2023-04-13T19:15:47.438Z,1.98
2023-04-13T19:18:35.345Z,2.35
2023-04-13T19:21:24.523Z,1.15
2023-04-13T19:24:13.508Z,4.75
2023-04-13T19:27:01.174Z,2.65
2023-04-13T19:29:51.591Z,8.13
2023-04-13T19:32:41.067Z,6.07
2023-04-13T19:35:29.326Z,11.25
2023-04-13T19:38:17.148Z,10.18
2023-04-13T19:41:04.666Z,3.08
2023-04-13T19:43:52.550Z,9.40
2023-04-13T19:46:41.075Z,4.55
2023-04-13T19:49:28.733Z,4.43
2023-04-13T19:52:17.789Z,7.28
2023-04-13T19:55:06.539Z,4.82
2023-04-13T19:57:54.516Z,2.63
2023-04-13T20:00:42.507Z,2.28
2023-04-13T20:03:30.447Z,7.88
2023-04-13T20:06:18.756Z,19.60
2023-04-13T20:09:12.109Z,20.17
2023-04-13T20:11:59.746Z,19.15
2023-04-13T20:14:48.504Z,8.60
2023-04-13T20:17:36.268Z,11.27
2023-04-13T20:20:24.579Z,10.68
2023-04-13T20:23:12.188Z,19.73
2023-04-13T20:26:00.893Z,15.93
2023-04-13T20:28:49.589Z,16.58
2023-04-13T20:31:39.266Z,9.23
2023-04-13T20:34:28.263Z,10.38
2023-04-13T20:37:18.697Z,10.70
2023-04-13T20:40:07.258Z,8.48
2023-04-13T20:42:56.692Z,9.18
2023-04-13T20:45:47.642Z,23.67
2023-04-13T20:51:30.069Z,17.02
2023-04-13T20:54:17.746Z,11.00
2023-04-13T20:57:05.917Z,9.40
2023-04-13T20:59:54.514Z,14.57
2023-04-13T21:02:43.345Z,13.85
2023-04-13T21:05:31.125Z,7.82
2023-04-13T21:08:18.941Z,10.98
2023-04-13T21:11:06.574Z,17.10
2023-04-13T21:13:54.260Z,11.40
2023-04-13T21:16:42.134Z,8.00
2023-04-13T21:19:29.887Z,14.02
2023-04-13T21:22:19.099Z,3.88
2023-04-13T21:25:07.310Z,5.18
2023-04-13T21:27:54.878Z,3.40
2023-04-13T21:30:42.477Z,4.93
2023-04-13T21:33:30.041Z,5.72
2023-04-13T21:39:08.932Z,14.18
2023-04-13T21:41:56.532Z,7.03
2023-04-13T21:44:44.059Z,11.70
2023-04-13T21:47:32.048Z,6.40
2023-04-13T21:50:21.116Z,4.82
2023-04-13T21:53:08.754Z,4.95
2023-04-13T21:55:56.675Z,2.88
2023-04-13T21:58:45.913Z,3.00
2023-04-13T22:01:33.553Z,5.50
2023-04-13T22:04:21.421Z,3.53
2023-04-13T22:07:09.047Z,1.83
2023-04-13T22:09:58.054Z,1.50
2023-04-13T22:12:46.491Z,4.25
2023-04-13T22:15:34.251Z,4.38
2023-04-13T22:18:22.033Z,0.60
2023-04-13T22:21:09.766Z,2.38
2023-04-13T22:23:57.393Z,8.23
2023-04-13T22:26:45.324Z,5.32
2023-04-13T22:29:35.437Z,7.93
2023-04-13T22:32:23.172Z,0.52
2023-04-13T22:35:11.600Z,1.10
2023-04-13T22:37:59.258Z,1.17
2023-04-13T22:40:46.923Z,0.30
2023-04-13T22:43:34.630Z,0.95
2023-04-13T22:46:23.276Z,1.42
2023-04-13T22:49:10.978Z,0.63
2023-04-13T22:52:00.414Z,4.40
2023-04-13T22:54:48.156Z,1.80
2023-04-13T22:57:35.853Z,6.53
2023-04-13T23:00:23.842Z,1.30
2023-04-13T23:03:14.746Z,5.65
2023-04-13T23:06:05.375Z,5.53
2023-04-13T23:08:55.763Z,2.75
2023-04-13T23:11:43.516Z,3.10
2023-04-13T23:14:31.266Z,4.28
2023-04-13T23:17:18.913Z,2.53
2023-04-13T23:20:10.946Z,2.08
2023-04-13T23:22:58.597Z,3.42
2023-04-13T23:25:50.578Z,2.15
2023-04-13T23:28:38.220Z,1.00
2023-04-13T23:31:26.044Z,3.85
2023-04-13T23:34:13.934Z,0.63
2023-04-13T23:37:01.440Z,5.93
2023-04-13T23:39:49.266Z,5.28
2023-04-13T23:42:37.086Z,2.42
2023-04-13T23:45:25.414Z,1.30
2023-04-13T23:48:13.134Z,7.10
2023-04-13T23:51:00.898Z,2.08
2023-04-13T23:53:48.406Z,6.30
2023-04-13T23:56:37.237Z,1.38
2023-04-13T23:59:25.069Z,3.20
